Flight Track Log - Related Links

Times and Time Zones

All times are in EDT time to prevent confusion due to time zone crossing. See the ASQ6151 flight status page for this flight to view local times or setup timezone preferences in your user account.

Time Position Orientation Groundspeed Altitude Reporting Facility
EDT Latitude Longitude Course Direction KTS MPH feet Rate Location/Type
Thu 12:29:12 AM 42.0333 -87.9667 270° West 191 220 3,700  Level Chicago TRACON
Thu 12:30:24 AM 42.0500 -88.0500 285° West 255 293 5,600 1,200 Climbing Chicago TRACON
Thu 12:31:12 AM 42.0500 -88.1333 270° West 265 305 6,100 778 Climbing Chicago TRACON
Thu 12:32:12 AM 42.0500 -88.2333 270° West 262 302 7,000 912 Climbing Chicago TRACON
Thu 12:33:17 AM 42.0494 -88.3325 270° West 269 310 8,000 429 Climbing Chicago Center
Thu 12:34:00 AM 41.9669 -88.2433 270° West  Level FlightAware Approximate
Thu 12:34:18 AM 42.0458 -88.4347 267° West 276 318 7,900  Level Chicago Center
Thu 12:35:19 AM 42.0422 -88.5286 267° West 258 297 8,000 49 Climbing Chicago Center
Thu 12:36:20 AM 42.0394 -88.6317 268° West 272 313 8,000  Level Chicago Center
Thu 12:37:20 AM 42.0358 -88.7411 267° West 292 336 8,000  Level Chicago Center
Thu 12:38:21 AM 42.0106 -88.8389 251° West 290 334 8,000 49 Level Chicago Center
Thu 12:39:22 AM 41.9589 -88.9097 226° Southwest 281 323 8,100  Climbing Chicago Center
Thu 12:40:23 AM 41.8753 -88.9683 208° Southwest 284 327 8,000 -50 Descending Chicago Center
Thu 12:41:23 AM 41.8022 -89.0183 207° Southwest 295 339 8,000  Level Chicago Center
Thu 12:42:24 AM 41.7328 -89.0686 208° Southwest 290 334 8,000 49 Level Chicago Center
Thu 12:43:25 AM 41.6675 -89.1136 207° Southwest 272 313 8,100  Climbing Chicago Center
Thu 12:44:26 AM 41.5922 -89.1664 208° Southwest 305 351 8,000 -50 Descending Chicago Center
Thu 12:45:26 AM 41.5222 -89.2158 208° Southwest 285 328 8,000  Level Chicago Center
Thu 12:46:27 AM 41.4589 -89.2611 208° Southwest 263 303 8,000  Level Chicago Center
Thu 12:47:28 AM 41.3883 -89.3086 207° Southwest 276 318 8,000  Level Chicago Center
Thu 12:48:29 AM 41.3175 -89.3578 208° Southwest 285 328 8,000  Level Chicago Center
Thu 12:49:29 AM 41.2467 -89.4056 207° Southwest 286 329 8,000 -545 Level Chicago Center
Thu 12:50:30 AM 41.1761 -89.4358 198° South 271 312 6,900 -1,131 Descending Chicago Center
Thu 12:51:31 AM 41.1050 -89.4642 197° South 268 308 5,700 -1,240 Descending Chicago Center
Thu 12:52:31 AM 41.0344 -89.4903 196° South 264 304 4,400 -1,240 Descending Chicago Center
Thu 12:53:32 AM 40.9656 -89.5192 198° South 260 299 3,200 -934 Descending Chicago Center
Thu 12:54:33 AM 40.8972 -89.5467 197° South 259 298 2,500 -397 Descending Chicago Center
Thu 12:55:33 AM 40.8300 -89.5725 196° South 255 293 2,400 -50 Descending Chicago Center
Thu 12:56:34 AM 40.7608 -89.5994 196° South 254 292 2,400  Level Chicago Center

Login

Don't have an account? Register now (free) for customized features, flight alerts, and more!